createdAt,value
2019-01-31T00:02:45.824Z,19.83
2019-01-31T00:05:23.004Z,17.33
2019-01-31T00:08:00.372Z,11.20
2019-01-31T00:10:46.863Z,16.93
2019-01-31T00:13:32.691Z,25.37
2019-01-31T00:16:22.123Z,13.50
2019-01-31T00:18:56.195Z,19.00
2019-01-31T00:21:45.436Z,7.57
2019-01-31T00:24:28.746Z,23.53
2019-01-31T00:27:05.416Z,16.27
2019-01-31T00:29:42.593Z,8.40
2019-01-31T00:32:17.204Z,15.00
2019-01-31T00:35:00.880Z,11.63
2019-01-31T00:37:44.154Z,9.10
2019-01-31T00:40:30.463Z,14.73
2019-01-31T00:43:10.647Z,27.67
2019-01-31T00:45:50.275Z,24.73
2019-01-31T00:48:24.527Z,24.83
2019-01-31T00:51:11.082Z,21.17
2019-01-31T00:53:45.064Z,23.50
2019-01-31T00:56:19.336Z,26.73
2019-01-31T00:58:53.462Z,25.33
2019-01-31T01:01:51.947Z,25.50
2019-01-31T01:04:55.039Z,22.07
2019-01-31T01:07:52.994Z,20.53
2019-01-31T01:10:54.407Z,19.90
2019-01-31T01:13:55.743Z,16.20
2019-01-31T01:16:35.772Z,16.90
2019-01-31T01:19:10.351Z,12.57
2019-01-31T01:21:44.831Z,23.10
2019-01-31T01:24:22.128Z,15.17
2019-01-31T01:26:59.031Z,14.90
2019-01-31T01:30:01.529Z,14.00
2019-01-31T01:32:45.003Z,17.20
2019-01-31T01:35:22.054Z,18.60
2019-01-31T01:37:59.320Z,19.53
2019-01-31T01:40:33.378Z,15.50
2019-01-31T01:43:07.683Z,12.07
2019-01-31T01:45:57.259Z,17.87
2019-01-31T01:48:31.387Z,25.47
2019-01-31T01:51:05.455Z,10.83
2019-01-31T01:53:42.591Z,6.43
2019-01-31T01:56:31.963Z,17.17
2019-01-31T01:59:09.167Z,18.33
2019-01-31T02:01:55.176Z,17.93
2019-01-31T02:04:44.843Z,14.70
2019-01-31T02:07:22.399Z,22.00
2019-01-31T02:10:16.691Z,21.60
2019-01-31T02:13:02.926Z,23.13
2019-01-31T02:15:37.047Z,19.90
2019-01-31T02:18:11.024Z,17.33
2019-01-31T02:21:11.123Z,17.13
2019-01-31T02:23:45.346Z,15.07
2019-01-31T02:26:19.575Z,16.77
2019-01-31T02:28:51.050Z,22.47
2019-01-31T02:31:25.403Z,22.47
2019-01-31T02:34:11.271Z,22.97
2019-01-31T02:36:51.339Z,23.67
2019-01-31T02:39:42.806Z,21.03
2019-01-31T02:42:25.990Z,21.67
2019-01-31T02:45:00.041Z,14.00
2019-01-31T02:47:46.562Z,18.30
2019-01-31T02:50:26.698Z,18.93
2019-01-31T02:53:09.843Z,16.43
2019-01-31T02:55:56.093Z,13.93
2019-01-31T02:58:45.664Z,16.13
2019-01-31T03:01:22.911Z,19.23
2019-01-31T03:04:11.724Z,24.97
2019-01-31T03:07:04.452Z,21.13
2019-01-31T03:09:35.926Z,19.80
2019-01-31T03:12:22.300Z,21.40
2019-01-31T03:14:53.772Z,26.43
2019-01-31T03:17:36.955Z,24.23
2019-01-31T03:20:38.555Z,23.20
2019-01-31T03:23:18.505Z,23.57
2019-01-31T03:25:58.952Z,33.80
2019-01-31T03:28:30.427Z,31.53
2019-01-31T03:31:29.346Z,31.53
2019-01-31T03:34:00.815Z,23.20
2019-01-31T03:36:55.163Z,32.00
2019-01-31T03:39:35.264Z,24.10
2019-01-31T03:42:29.382Z,33.03
2019-01-31T03:45:03.572Z,33.87
2019-01-31T03:47:49.918Z,29.83
2019-01-31T03:50:33.391Z,29.37
2019-01-31T03:53:22.942Z,42.00
2019-01-31T03:56:06.704Z,37.23
2019-01-31T03:58:46.854Z,36.97
2019-01-31T04:01:26.656Z,36.27
2019-01-31T04:04:13.224Z,35.17
2019-01-31T04:06:41.428Z,24.77
2019-01-31T04:09:09.802Z,26.20
2019-01-31T04:11:38.014Z,31.33
2019-01-31T04:14:06.211Z,33.00
2019-01-31T04:16:34.423Z,31.10
2019-01-31T04:19:02.704Z,32.17
2019-01-31T04:21:31.376Z,28.70
2019-01-31T04:23:59.589Z,32.87
2019-01-31T04:26:27.787Z,31.77
2019-01-31T04:28:55.995Z,25.63
2019-01-31T04:31:24.197Z,32.30
2019-01-31T04:33:52.399Z,37.07
2019-01-31T04:36:20.611Z,34.20
2019-01-31T04:38:48.807Z,34.23
2019-01-31T04:41:17.002Z,36.47
2019-01-31T04:43:45.232Z,34.03
2019-01-31T04:46:13.428Z,36.30
2019-01-31T04:48:42.196Z,38.00
2019-01-31T04:51:10.403Z,37.00
2019-01-31T04:53:38.612Z,36.23
2019-01-31T04:56:06.815Z,28.27
2019-01-31T04:58:35.026Z,35.83
2019-01-31T05:01:03.230Z,32.93
2019-01-31T05:03:31.423Z,40.83
2019-01-31T05:05:59.635Z,45.67
2019-01-31T05:08:30.900Z,37.00
2019-01-31T05:10:57.751Z,47.53
2019-01-31T05:13:25.959Z,34.17
2019-01-31T05:15:54.169Z,35.63
2019-01-31T05:18:22.367Z,47.00
2019-01-31T05:20:50.568Z,35.90
2019-01-31T05:23:18.783Z,27.37
2019-01-31T05:25:46.982Z,34.10
2019-01-31T05:28:15.195Z,32.73
2019-01-31T05:30:43.395Z,31.00
2019-01-31T05:33:12.074Z,44.63
2019-01-31T05:35:40.303Z,28.40
2019-01-31T05:38:08.503Z,31.03
2019-01-31T05:40:36.707Z,33.00
2019-01-31T05:43:04.907Z,34.37
2019-01-31T05:45:33.107Z,30.70
2019-01-31T05:48:01.319Z,34.80
2019-01-31T05:50:29.527Z,36.33
2019-01-31T05:52:57.719Z,39.53
2019-01-31T05:55:25.932Z,38.43
2019-01-31T05:57:54.128Z,35.53
2019-01-31T06:00:24.920Z,38.00
2019-01-31T06:02:53.122Z,37.47
2019-01-31T06:05:21.316Z,37.10
2019-01-31T06:07:49.524Z,34.23
2019-01-31T06:10:17.731Z,41.27
2019-01-31T06:12:45.927Z,44.57
2019-01-31T06:15:18.721Z,41.03
2019-01-31T06:17:46.929Z,31.27
2019-01-31T06:20:18.167Z,43.50
2019-01-31T06:22:46.371Z,37.30
2019-01-31T06:25:14.572Z,29.83
2019-01-31T06:27:42.787Z,30.20
2019-01-31T06:30:14.087Z,32.23
2019-01-31T06:32:42.283Z,32.50
2019-01-31T06:35:11.530Z,23.23
2019-01-31T06:37:39.724Z,39.30
2019-01-31T06:40:16.427Z,32.90
2019-01-31T06:42:44.630Z,29.33
2019-01-31T06:45:17.680Z,34.90
2019-01-31T06:47:45.887Z,39.33
2019-01-31T06:50:14.099Z,37.27
2019-01-31T06:52:42.370Z,31.47
2019-01-31T06:55:11.413Z,34.57
2019-01-31T06:57:39.628Z,39.20
2019-01-31T07:00:17.243Z,28.47
2019-01-31T07:02:45.447Z,28.27
2019-01-31T07:05:13.659Z,30.87
2019-01-31T07:07:41.909Z,33.80
2019-01-31T07:10:16.517Z,35.67
2019-01-31T07:12:44.712Z,26.00
2019-01-31T07:15:13.079Z,26.53
2019-01-31T07:17:41.296Z,30.50
2019-01-31T07:20:14.719Z,38.17
2019-01-31T07:22:42.936Z,32.17
2019-01-31T07:25:33.583Z,33.57
2019-01-31T07:28:01.795Z,38.13
2019-01-31T07:30:29.991Z,36.70
2019-01-31T07:32:58.199Z,35.53
2019-01-31T07:35:26.395Z,47.67
2019-01-31T07:37:54.613Z,46.00
2019-01-31T07:40:23.078Z,41.57
2019-01-31T07:42:51.275Z,45.03
2019-01-31T07:45:24.471Z,33.40
2019-01-31T07:47:52.680Z,53.17
2019-01-31T07:50:20.876Z,46.87
2019-01-31T07:52:49.089Z,54.10
2019-01-31T07:55:18.123Z,50.30
2019-01-31T07:57:46.323Z,47.47
2019-01-31T08:00:20.363Z,48.63
2019-01-31T08:02:48.579Z,50.03
2019-01-31T08:05:18.326Z,38.40
2019-01-31T08:07:46.867Z,40.07
2019-01-31T08:10:20.572Z,44.47
2019-01-31T08:12:49.023Z,47.83
2019-01-31T08:15:18.665Z,36.80
2019-01-31T08:18:06.296Z,32.37
2019-01-31T08:20:34.507Z,29.67
2019-01-31T08:23:02.710Z,27.10
2019-01-31T08:25:30.907Z,35.67
2019-01-31T08:27:59.158Z,38.30
2019-01-31T08:30:29.743Z,41.67
2019-01-31T08:32:57.943Z,34.33
2019-01-31T08:35:26.151Z,32.77
2019-01-31T08:37:54.351Z,41.43
2019-01-31T08:40:22.551Z,39.57
2019-01-31T08:42:50.768Z,42.17
2019-01-31T08:45:18.968Z,35.53
2019-01-31T08:47:47.161Z,40.27
2019-01-31T08:50:18.082Z,33.40
2019-01-31T08:52:46.283Z,39.57
2019-01-31T08:55:14.521Z,36.97
2019-01-31T08:57:42.751Z,43.67
2019-01-31T09:00:28.343Z,49.70
2019-01-31T09:02:56.539Z,89.57
2019-01-31T09:05:24.739Z,33.07
2019-01-31T09:07:53.224Z,41.20
2019-01-31T09:10:27.155Z,37.37
2019-01-31T09:12:55.503Z,33.73
2019-01-31T09:15:25.146Z,30.50
2019-01-31T09:17:53.361Z,38.60
2019-01-31T09:20:24.755Z,33.33
2019-01-31T09:22:56.233Z,46.43
2019-01-31T09:26:00.921Z,33.87
2019-01-31T09:28:37.960Z,31.93
2019-01-31T09:31:12.283Z,34.83
2019-01-31T09:33:46.391Z,29.27
2019-01-31T09:36:29.819Z,25.77
2019-01-31T09:39:22.540Z,25.80
2019-01-31T09:42:06.023Z,24.80
2019-01-31T09:44:49.595Z,28.13
2019-01-31T09:47:33.255Z,25.80
2019-01-31T09:50:13.595Z,29.60
2019-01-31T09:53:09.031Z,22.17
2019-01-31T09:55:56.907Z,19.23
2019-01-31T09:58:28.371Z,26.07
2019-01-31T10:00:59.807Z,20.53
2019-01-31T10:03:43.000Z,20.57
2019-01-31T10:06:38.651Z,20.53
2019-01-31T10:09:22.128Z,24.50
2019-01-31T10:12:16.258Z,18.80
2019-01-31T10:15:21.821Z,25.87
2019-01-31T10:17:56.212Z,20.10
2019-01-31T10:20:51.478Z,21.70
2019-01-31T10:23:39.703Z,20.80
2019-01-31T10:26:26.014Z,25.10
2019-01-31T10:29:27.732Z,21.80
2019-01-31T10:32:17.383Z,21.50
2019-01-31T10:35:23.859Z,21.03
2019-01-31T10:37:58.287Z,19.23
2019-01-31T10:40:50.635Z,27.13
2019-01-31T10:43:22.087Z,21.23
2019-01-31T10:45:56.112Z,21.63
2019-01-31T10:48:54.439Z,21.47
2019-01-31T10:51:28.988Z,21.03
2019-01-31T10:54:15.235Z,30.03
2019-01-31T10:57:03.152Z,21.27
2019-01-31T10:59:49.487Z,19.53
2019-01-31T11:02:47.861Z,18.47
2019-01-31T11:05:21.584Z,17.03
2019-01-31T11:08:07.763Z,14.03
2019-01-31T11:10:41.871Z,13.53
2019-01-31T11:13:31.259Z,17.23
2019-01-31T11:16:08.706Z,19.20
2019-01-31T11:18:52.199Z,15.80
2019-01-31T11:21:59.674Z,12.93
2019-01-31T11:24:31.127Z,13.87
2019-01-31T11:27:21.867Z,15.13
2019-01-31T11:30:05.611Z,14.53
2019-01-31T11:32:52.217Z,12.90
2019-01-31T11:35:29.538Z,14.50
2019-01-31T11:38:15.744Z,15.67
2019-01-31T11:40:59.263Z,14.63
2019-01-31T11:43:51.844Z,14.00
2019-01-31T11:46:32.114Z,14.93
2019-01-31T11:49:03.564Z,14.40
2019-01-31T12:06:44.208Z,20.57
2019-01-31T12:09:13.947Z,17.60
2019-01-31T12:11:42.803Z,14.70
2019-01-31T12:14:11.009Z,16.93
2019-01-31T12:16:39.199Z,15.20
2019-01-31T12:19:07.666Z,18.37
2019-01-31T12:21:35.979Z,14.73
2019-01-31T12:24:04.171Z,20.37
2019-01-31T12:26:32.376Z,16.67
2019-01-31T12:29:00.564Z,15.30
2019-01-31T12:31:28.767Z,16.57
2019-01-31T12:33:56.964Z,15.50
2019-01-31T12:36:25.161Z,14.73
2019-01-31T12:38:55.009Z,17.97
2019-01-31T12:41:23.340Z,16.23
2019-01-31T12:43:51.526Z,18.03
2019-01-31T12:46:19.728Z,15.77
2019-01-31T12:48:47.923Z,15.73
2019-01-31T12:51:16.133Z,16.90
2019-01-31T12:53:44.326Z,16.90
2019-01-31T12:56:12.528Z,18.00
2019-01-31T12:58:40.739Z,20.97
2019-01-31T13:01:08.931Z,16.53
2019-01-31T13:03:37.135Z,20.70
2019-01-31T13:06:05.346Z,15.10
2019-01-31T13:08:33.533Z,20.63
2019-01-31T13:11:01.736Z,15.50
2019-01-31T13:13:29.938Z,20.23
2019-01-31T13:15:58.131Z,19.97
2019-01-31T13:18:26.336Z,20.90
2019-01-31T13:20:54.607Z,21.40
2019-01-31T13:23:22.823Z,25.37
2019-01-31T13:25:51.010Z,23.60
2019-01-31T13:28:19.215Z,27.70
2019-01-31T13:30:47.406Z,26.23
2019-01-31T13:33:15.613Z,24.00
2019-01-31T13:35:43.967Z,22.83
2019-01-31T13:38:12.158Z,23.07
2019-01-31T13:40:40.372Z,22.50
2019-01-31T13:43:08.599Z,20.57
2019-01-31T13:45:36.790Z,21.17
2019-01-31T13:48:07.594Z,21.40
2019-01-31T13:50:35.803Z,22.33
2019-01-31T13:53:05.814Z,22.67
2019-01-31T13:55:34.019Z,25.13
2019-01-31T13:58:02.888Z,22.30
2019-01-31T14:00:31.087Z,19.33
2019-01-31T14:02:59.287Z,25.40
2019-01-31T14:05:29.783Z,19.43
2019-01-31T14:07:57.395Z,19.37
2019-01-31T14:10:26.649Z,23.13
2019-01-31T14:12:54.843Z,21.30
2019-01-31T14:15:33.568Z,24.80
2019-01-31T14:17:58.779Z,23.53
2019-01-31T14:20:27.911Z,24.93
2019-01-31T14:22:56.103Z,27.07
2019-01-31T14:25:24.295Z,39.30
2019-01-31T14:27:52.485Z,40.37
2019-01-31T14:30:23.572Z,36.67
2019-01-31T14:32:52.143Z,40.73
2019-01-31T14:35:20.334Z,30.77
2019-01-31T14:37:48.534Z,34.37
2019-01-31T14:40:16.729Z,57.50
2019-01-31T14:42:45.015Z,30.10
2019-01-31T14:45:16.907Z,38.10
2019-01-31T14:47:45.095Z,41.93
2019-01-31T14:50:19.343Z,97.60
2019-01-31T14:52:47.542Z,43.43
2019-01-31T14:55:35.164Z,70.83
2019-01-31T14:58:03.367Z,79.27
2019-01-31T15:00:32.606Z,192.20
2019-01-31T15:03:00.807Z,89.57
2019-01-31T15:05:29.367Z,135.57
2019-01-31T15:07:57.572Z,88.37
2019-01-31T15:10:27.618Z,116.73
2019-01-31T15:12:55.815Z,49.10
2019-01-31T15:15:24.015Z,46.10
2019-01-31T15:17:53.131Z,25.83
2019-01-31T15:20:38.118Z,32.33
2019-01-31T15:23:03.254Z,57.30
2019-01-31T15:25:31.455Z,132.17
2019-01-31T15:27:59.658Z,135.63
2019-01-31T15:30:37.673Z,90.83
2019-01-31T15:33:10.820Z,186.70
2019-01-31T15:35:39.027Z,125.40
2019-01-31T15:38:07.229Z,81.90
2019-01-31T15:40:41.016Z,204.20
2019-01-31T15:43:09.208Z,130.33
2019-01-31T15:45:37.420Z,125.93
2019-01-31T15:48:06.055Z,179.23
2019-01-31T15:50:34.264Z,167.20
2019-01-31T15:53:02.494Z,169.87
2019-01-31T15:55:30.700Z,148.77
2019-01-31T15:57:58.907Z,151.30
2019-01-31T16:00:37.599Z,198.13
2019-01-31T16:03:06.846Z,226.53
2019-01-31T16:05:35.051Z,142.53
2019-01-31T16:08:03.315Z,191.67
2019-01-31T16:10:31.584Z,289.17
2019-01-31T16:12:59.850Z,313.13
2019-01-31T16:15:28.185Z,316.20
2019-01-31T16:17:56.444Z,172.03
2019-01-31T16:20:24.639Z,343.57
2019-01-31T16:22:52.857Z,334.20
2019-01-31T16:25:21.055Z,306.13
2019-01-31T16:27:49.267Z,292.40
2019-01-31T16:30:19.101Z,251.27
2019-01-31T16:32:47.282Z,223.83
2019-01-31T16:35:17.473Z,299.13
2019-01-31T16:37:45.669Z,317.47
2019-01-31T16:40:15.415Z,175.20
2019-01-31T16:42:43.622Z,110.53
2019-01-31T16:45:13.376Z,115.90
2019-01-31T16:47:41.571Z,131.03
2019-01-31T16:50:12.127Z,148.53
2019-01-31T16:52:40.323Z,107.23
2019-01-31T16:55:11.731Z,132.13
2019-01-31T16:57:39.934Z,136.80
2019-01-31T17:00:11.419Z,157.87
2019-01-31T17:02:39.611Z,146.97
2019-01-31T17:05:11.072Z,150.23
2019-01-31T17:07:39.271Z,109.83
2019-01-31T17:10:07.547Z,115.57
2019-01-31T17:12:35.752Z,87.93
2019-01-31T17:15:17.530Z,91.17
2019-01-31T17:17:36.215Z,99.97
2019-01-31T17:20:07.676Z,69.33
2019-01-31T17:22:35.884Z,105.13
2019-01-31T17:25:07.576Z,86.13
2019-01-31T17:27:35.779Z,83.47
2019-01-31T17:30:06.673Z,75.00
2019-01-31T17:32:34.882Z,52.83
2019-01-31T17:35:03.140Z,83.10
2019-01-31T17:37:31.331Z,72.17
2019-01-31T17:39:59.540Z,112.30
2019-01-31T17:42:27.748Z,86.30
2019-01-31T17:44:55.944Z,192.87
2019-01-31T17:47:24.136Z,93.10
2019-01-31T17:49:52.339Z,77.83
2019-01-31T17:52:20.535Z,85.37
2019-01-31T17:54:48.727Z,78.47
2019-01-31T17:57:16.937Z,86.40
2019-01-31T17:59:45.155Z,107.50
2019-01-31T18:02:13.340Z,94.97
2019-01-31T18:04:41.547Z,90.93
2019-01-31T18:07:09.753Z,162.17
2019-01-31T18:09:37.959Z,115.10
2019-01-31T18:12:06.243Z,136.77
2019-01-31T18:14:34.451Z,142.23
2019-01-31T18:17:02.660Z,124.93
2019-01-31T18:19:50.300Z,112.43
2019-01-31T18:22:18.502Z,86.17
2019-01-31T18:24:46.695Z,94.87
2019-01-31T18:27:14.954Z,124.27
2019-01-31T18:29:43.204Z,138.23
2019-01-31T18:32:11.404Z,118.10
2019-01-31T18:34:39.619Z,80.93
2019-01-31T18:37:07.828Z,65.03
2019-01-31T18:39:36.035Z,65.67
2019-01-31T18:42:04.251Z,69.53
2019-01-31T18:44:32.463Z,61.17
2019-01-31T18:47:00.673Z,85.17
2019-01-31T18:49:28.873Z,82.53
2019-01-31T18:51:57.087Z,84.03
2019-01-31T18:54:25.311Z,153.57
2019-01-31T18:56:53.511Z,82.93
2019-01-31T18:59:21.728Z,348.20
2019-01-31T19:01:49.941Z,317.77
2019-01-31T19:04:18.714Z,127.90
2019-01-31T19:06:46.936Z,83.97
2019-01-31T19:09:15.139Z,67.20
2019-01-31T19:11:43.339Z,82.37
2019-01-31T19:14:14.295Z,77.80
2019-01-31T19:16:41.487Z,73.03
2019-01-31T19:19:09.696Z,76.50
2019-01-31T19:21:37.921Z,83.30
2019-01-31T19:24:06.150Z,74.07
2019-01-31T19:26:34.351Z,78.57
2019-01-31T19:29:02.563Z,78.13
2019-01-31T19:31:30.995Z,81.40
2019-01-31T19:33:59.212Z,87.20
2019-01-31T19:36:27.580Z,64.40
2019-01-31T19:38:55.796Z,85.90
2019-01-31T19:41:24.668Z,95.83
2019-01-31T19:43:53.447Z,71.70
2019-01-31T19:46:41.132Z,68.03
2019-01-31T19:49:11.111Z,45.23
2019-01-31T19:51:59.812Z,77.77
2019-01-31T19:54:26.323Z,74.90
2019-01-31T19:56:54.747Z,39.87
2019-01-31T19:59:33.240Z,61.33
2019-01-31T20:01:53.034Z,53.70
2019-01-31T20:04:21.348Z,35.43
2019-01-31T20:06:49.602Z,31.03
2019-01-31T20:09:19.496Z,29.23
2019-01-31T20:11:47.745Z,40.13
2019-01-31T20:14:16.031Z,29.73
2019-01-31T20:16:46.005Z,38.37
2019-01-31T20:19:14.398Z,27.30
2019-01-31T20:21:44.375Z,32.67
2019-01-31T20:24:12.720Z,33.67
2019-01-31T20:26:44.777Z,30.00
2019-01-31T20:29:14.904Z,31.17
2019-01-31T20:31:42.917Z,36.07
2019-01-31T20:34:12.956Z,21.97
2019-01-31T20:36:42.521Z,13.53
2019-01-31T20:39:10.930Z,31.67
2019-01-31T20:41:40.517Z,35.90
2019-01-31T20:44:10.028Z,29.83
2019-01-31T20:46:40.565Z,19.70
2019-01-31T20:49:10.117Z,25.17
2019-01-31T20:51:40.773Z,25.03
2019-01-31T20:54:08.502Z,33.70
2019-01-31T20:56:38.374Z,23.57
2019-01-31T20:59:06.692Z,25.63
2019-01-31T21:01:36.721Z,24.77
2019-01-31T21:04:05.111Z,29.10
2019-01-31T21:06:41.076Z,15.20
2019-01-31T21:11:57.402Z,25.40
2019-01-31T21:14:27.372Z,15.63
2019-01-31T21:16:55.708Z,16.33
2019-01-31T21:19:25.754Z,16.70
2019-01-31T21:21:55.296Z,18.53
2019-01-31T21:24:23.463Z,21.43
2019-01-31T21:26:51.671Z,18.60
2019-01-31T21:29:19.863Z,13.90
2019-01-31T21:31:48.076Z,23.43
2019-01-31T21:34:16.284Z,16.20
2019-01-31T21:36:45.051Z,15.80
2019-01-31T21:39:13.247Z,14.30
2019-01-31T21:41:41.456Z,19.00
2019-01-31T21:44:09.669Z,23.67
2019-01-31T21:46:37.876Z,26.03
2019-01-31T21:49:06.071Z,22.97
2019-01-31T21:51:34.275Z,14.70
2019-01-31T21:54:03.067Z,19.23
2019-01-31T21:56:31.265Z,14.67
2019-01-31T21:58:59.457Z,22.80
2019-01-31T22:01:27.668Z,12.83
2019-01-31T22:03:55.863Z,19.63
2019-01-31T22:06:24.068Z,19.03
2019-01-31T22:08:52.279Z,21.73
2019-01-31T22:11:39.915Z,25.27
2019-01-31T22:14:08.120Z,26.87
2019-01-31T22:16:36.323Z,12.03
2019-01-31T22:19:04.535Z,17.90
2019-01-31T22:21:32.755Z,17.90
2019-01-31T22:24:00.951Z,17.03
2019-01-31T22:26:29.146Z,21.80
2019-01-31T22:28:57.360Z,16.40
2019-01-31T22:31:25.560Z,20.10
2019-01-31T22:33:53.763Z,20.17
2019-01-31T22:36:21.993Z,16.97
2019-01-31T22:38:50.176Z,14.87
2019-01-31T22:41:18.389Z,17.63
2019-01-31T22:43:46.579Z,15.97
2019-01-31T22:46:14.788Z,19.43
2019-01-31T22:48:42.987Z,16.43
2019-01-31T22:51:11.195Z,16.37
2019-01-31T22:53:39.396Z,20.90
2019-01-31T22:56:07.596Z,14.43
2019-01-31T22:58:35.803Z,11.93
2019-01-31T23:01:16.935Z,13.07
2019-01-31T23:03:45.146Z,12.80
2019-01-31T23:06:13.340Z,15.13
2019-01-31T23:08:41.552Z,16.97
2019-01-31T23:11:09.752Z,10.87
2019-01-31T23:13:37.955Z,17.43
2019-01-31T23:16:06.163Z,10.40
2019-01-31T23:18:34.363Z,15.20
2019-01-31T23:21:02.567Z,12.70
2019-01-31T23:23:30.763Z,11.50
2019-01-31T23:25:58.977Z,16.33
2019-01-31T23:28:27.172Z,11.40
2019-01-31T23:30:55.380Z,11.43
2019-01-31T23:33:23.575Z,15.83
2019-01-31T23:35:51.793Z,18.83
2019-01-31T23:38:19.979Z,17.53
2019-01-31T23:40:48.201Z,16.30
2019-01-31T23:43:16.395Z,18.90
2019-01-31T23:45:44.585Z,12.70
2019-01-31T23:48:12.782Z,16.23
2019-01-31T23:50:40.983Z,15.17
2019-01-31T23:53:09.184Z,13.20
2019-01-31T23:55:37.387Z,18.30
2019-01-31T23:58:05.583Z,18.93
